Time;durP1;ratioP1;P1;durP2;ratioP2;P2;SDS_P1;SDS_P2;PMS_P1;PMS_P2;Temp;Humidity;BMP_temperature;BMP_pressure;BME280_temperature;BME280_humidity;BME280_pressure;Samples;Min_cycle;Max_cycle;Signal;HPM_P1;HPM_P2
2021/03/22 00:01:54;;;;;;;;;;;;;;;-1.30;100.00;100938.69;5073558;28;20023;-65
2021/03/22 00:04:19;;;;;;;;;;;;;;;-1.31;100.00;100931.66;5073543;28;19946;-64
2021/03/22 00:06:45;;;;;;;;;;;;;;;-1.42;100.00;100936.41;5073049;28;20389;-65
2021/03/22 00:09:11;;;;;;;;;;;;;;;-1.56;100.00;100934.13;5072514;28;20389;-64
2021/03/22 00:11:37;;;;;;;;;;;;;;;-1.63;100.00;100936.09;5073091;28;19920;-65
2021/03/22 00:14:03;;;;;;;;;;;;;;;-1.72;100.00;100936.34;5072782;28;19926;-64
2021/03/22 00:16:29;;;;;;;;;;;;;;;-1.81;100.00;100939.25;5072912;28;20085;-65
2021/03/22 00:18:55;;;;;;;;;;;;;;;-1.85;100.00;100943.75;5072601;28;20020;-65
2021/03/22 00:21:21;;;;;;;;;;;;;;;-1.90;100.00;100933.25;5072629;28;19931;-64
2021/03/22 00:23:47;;;;;;;;;;;;;;;-1.94;100.00;100944.00;5072583;28;20396;-64
2021/03/22 00:26:13;;;;;;;;;;;;;;;-1.99;100.00;100936.16;5054841;28;19927;-64
2021/03/22 00:28:39;;;;;;;;;;;;;;;-2.04;100.00;100940.72;5072842;28;20046;-65
2021/03/22 00:31:06;;;;;;;;;;;;;;;-2.14;100.00;100939.19;5072037;28;20018;-64
2021/03/22 00:33:32;;;;;;;;;;;;;;;-2.27;100.00;100934.19;5072386;28;19920;-64
2021/03/22 00:35:59;;;;;;;;;;;;;;;-2.37;100.00;100935.31;5072585;28;20381;-65
2021/03/22 00:38:25;;;;;;;;;;;;;;;-2.40;100.00;100932.72;5072317;28;19925;-65
2021/03/22 00:40:50;;;;;;;;;;;;;;;-2.43;100.00;100928.34;5072576;28;20309;-64
2021/03/22 00:43:16;;;;;;;;;;;;;;;-2.44;100.00;100936.38;5072015;28;19921;-65
2021/03/22 00:45:42;;;;;;;;;;;;;;;-2.52;100.00;100929.44;5075295;28;19920;-65
2021/03/22 00:48:08;;;;;;;;;;;;;;;-2.56;100.00;100930.41;5085692;28;20300;-65
2021/03/22 00:50:35;;;;;;;;;;;;;;;-2.55;100.00;100928.66;5092444;28;19923;-65
2021/03/22 00:53:02;;;;;;;;;;;;;;;-2.58;100.00;100931.38;5092184;28;20315;-65
2021/03/22 00:55:28;;;;;;;;;;;;;;;-2.59;100.00;100926.94;5092619;28;19928;-65
2021/03/22 00:57:55;;;;;;;;;;;;;;;-2.58;100.00;100932.25;5092491;28;19947;-65
2021/03/22 01:00:23;;;;;;;;;;;;;;;-2.57;100.00;100928.66;5091276;28;20260;-65
2021/03/22 01:02:49;;;;;;;;;;;;;;;-2.56;100.00;100930.41;5090389;28;20305;-65
2021/03/22 01:05:15;;;;;;;;;;;;;;;-2.53;100.00;100924.16;5091075;28;20117;-65
2021/03/22 01:07:41;;;;;;;;;;;;;;;-2.44;100.00;100921.28;5091139;28;20328;-65
2021/03/22 01:10:10;;;;;;;;;;;;;;;-2.33;100.00;100921.03;5090625;28;20170;-65
2021/03/22 01:12:36;;;;;;;;;;;;;;;-2.32;100.00;100916.59;5091054;28;19920;-67
2021/03/22 01:15:03;;;;;;;;;;;;;;;-2.29;100.00;100917.38;5091448;28;19924;-64
2021/03/22 01:17:29;;;;;;;;;;;;;;;-2.19;100.00;100921.56;5092158;28;19946;-65
2021/03/22 01:19:54;;;;;;;;;;;;;;;-2.09;100.00;100918.66;5091718;28;19969;-65
2021/03/22 01:22:20;;;;;;;;;;;;;;;-2.04;100.00;100919.44;5091873;28;19924;-65
2021/03/22 01:24:46;;;;;;;;;;;;;;;-1.97;100.00;100923.66;5091878;28;19919;-65
2021/03/22 01:27:13;;;;;;;;;;;;;;;-1.87;100.00;100914.53;5092064;28;19920;-65
2021/03/22 01:29:41;;;;;;;;;;;;;;;-1.79;100.00;100910.78;5091868;28;20022;-65
2021/03/22 01:32:07;;;;;;;;;;;;;;;-1.79;100.00;100911.66;5091748;28;20023;-65
2021/03/22 01:34:33;;;;;;;;;;;;;;;-1.77;100.00;100911.63;5091883;28;19928;-64
2021/03/22 01:36:59;;;;;;;;;;;;;;;-1.78;100.00;100921.38;5091815;28;19920;-65
2021/03/22 01:39:28;;;;;;;;;;;;;;;-1.72;100.00;100915.03;5091615;28;20551;-66
2021/03/22 01:42:00;;;;;;;;;;;;;;;-1.71;100.00;100912.31;5091384;28;20007;-66
2021/03/22 01:44:28;;;;;;;;;;;;;;;-1.67;100.00;100913.13;5091825;28;19973;-66
2021/03/22 01:46:55;;;;;;;;;;;;;;;-1.63;100.00;100909.47;5091124;28;19963;-67
2021/03/22 01:49:22;;;;;;;;;;;;;;;-1.62;100.00;100905.00;5091475;28;19924;-66
2021/03/22 01:51:49;;;;;;;;;;;;;;;-1.62;100.00;100900.53;5091648;28;19927;-66
2021/03/22 01:54:15;;;;;;;;;;;;;;;-1.64;100.00;100905.03;5091558;28;20357;-66
2021/03/22 01:56:45;;;;;;;;;;;;;;;-1.64;100.00;100902.38;5091682;28;19920;-67
2021/03/22 01:59:11;;;;;;;;;;;;;;;-1.56;100.00;100902.19;5091069;28;20385;-66
2021/03/22 02:01:39;;;;;;;;;;;;;;;-1.48;100.00;100901.94;5091503;28;19931;-66
2021/03/22 02:04:05;;;;;;;;;;;;;;;-1.38;100.00;100893.66;5091443;28;19930;-66
2021/03/22 02:06:31;;;;;;;;;;;;;;;-1.37;100.00;100895.38;5091384;28;19920;-66
2021/03/22 02:08:58;;;;;;;;;;;;;;;-1.36;100.00;100896.28;5091029;28;19927;-67
2021/03/22 02:11:26;;;;;;;;;;;;;;;-1.33;100.00;100896.19;5091496;28;19981;-65
2021/03/22 02:13:53;;;;;;;;;;;;;;;-1.32;100.00;100900.59;5091862;28;20292;-67
2021/03/22 02:16:22;;;;;;;;;;;;;;;-1.35;100.00;100898.00;5091439;28;19927;-67
2021/03/22 02:18:54;;;;;;;;;;;;;;;-1.30;100.00;100900.53;5090919;28;20323;-67
2021/03/22 02:21:28;;;;;;;;;;;;;;;-1.29;100.00;100900.50;5091374;28;19959;-67
2021/03/22 02:24:15;;;;;;;;;;;;;;;-1.34;100.00;100899.75;5091294;28;20018;-65
2021/03/22 02:26:54;;;;;;;;;;;;;;;-1.40;100.00;100921.25;5091097;28;20288;-64
2021/03/22 02:29:28;;;;;;;;;;;;;;;-1.43;100.00;100916.88;5090972;28;19928;-67
2021/03/22 02:32:10;;;;;;;;;;;;;;;-1.45;100.00;100916.03;5091288;28;20310;-65
2021/03/22 02:34:46;;;;;;;;;;;;;;;-1.49;100.00;100919.72;5084126;28;19927;-67
2021/03/22 02:37:28;;;;;;;;;;;;;;;-1.52;100.00;100922.47;5053165;28;19920;-67
2021/03/22 02:40:00;;;;;;;;;;;;;;;-1.53;100.00;100921.59;5070745;28;19922;-66
2021/03/22 02:42:27;;;;;;;;;;;;;;;-1.58;100.00;100925.28;5071064;28;19981;-65
2021/03/22 02:44:53;;;;;;;;;;;;;;;-1.62;100.00;100923.63;5070650;28;20394;-67
2021/03/22 02:47:21;;;;;;;;;;;;;;;-1.70;100.00;100934.47;5071175;28;19920;-66
2021/03/22 02:49:48;;;;;;;;;;;;;;;-1.74;100.00;100930.16;5070829;28;20369;-67
2021/03/22 02:52:18;;;;;;;;;;;;;;;-1.81;100.00;100925.94;5070551;28;19924;-65
2021/03/22 02:54:51;;;;;;;;;;;;;;;-1.88;100.00;100931.41;5070988;28;19924;-65
2021/03/22 02:57:20;;;;;;;;;;;;;;;-1.96;100.00;100944.03;5070767;28;19927;-65
2021/03/22 02:59:48;;;;;;;;;;;;;;;-1.99;100.00;100933.47;5074322;28;20312;-65
2021/03/22 03:02:14;;;;;;;;;;;;;;;-1.94;100.00;100934.22;5074416;28;19959;-65
2021/03/22 03:04:41;;;;;;;;;;;;;;;-1.99;100.00;100928.16;5074492;28;19977;-65
2021/03/22 03:07:09;;;;;;;;;;;;;;;-2.00;100.00;100930.84;5074272;28;20399;-65
2021/03/22 03:09:37;;;;;;;;;;;;;;;-1.96;100.00;100936.06;5073543;28;19931;-65
2021/03/22 03:12:11;;;;;;;;;;;;;;;-1.90;100.00;100943.91;5055943;28;21532;-67
2021/03/22 03:14:37;;;;;;;;;;;;;;;-1.87;100.00;100943.81;5074201;28;19964;-65
2021/03/22 03:17:04;;;;;;;;;;;;;;;-1.89;100.00;100950.06;5074255;28;19932;-65
2021/03/22 03:19:30;;;;;;;;;;;;;;;-1.97;100.00;100955.59;5073885;28;20423;-65
2021/03/22 03:21:56;;;;;;;;;;;;;;;-2.04;100.00;100949.56;5074104;28;20015;-65
2021/03/22 03:24:23;;;;;;;;;;;;;;;-2.09;100.00;100943.47;5074264;28;19925;-65
2021/03/22 03:26:48;;;;;;;;;;;;;;;-2.10;100.00;100951.50;5056106;28;19928;-65
2021/03/22 03:29:14;;;;;;;;;;;;;;;-2.20;100.00;100945.53;5054798;28;19954;-65
2021/03/22 03:31:40;;;;;;;;;;;;;;;-2.29;100.00;100946.63;5072518;28;19928;-65
2021/03/22 03:34:06;;;;;;;;;;;;;;;-2.36;100.00;100942.38;5073584;28;19924;-65
2021/03/22 03:36:32;;;;;;;;;;;;;;;-2.41;100.00;100941.59;5073582;28;20023;-65
2021/03/22 03:38:58;;;;;;;;;;;;;;;-2.49;100.00;100944.44;5073718;28;20027;-65
2021/03/22 03:41:24;;;;;;;;;;;;;;;-2.50;100.00;100949.81;5073884;28;19925;-65
2021/03/22 03:43:50;;;;;;;;;;;;;;;-2.45;100.00;100951.44;5073675;28;19931;-65
2021/03/22 03:46:16;;;;;;;;;;;;;;;-2.43;100.00;100951.41;5073618;28;19928;-65
2021/03/22 03:48:42;;;;;;;;;;;;;;;-2.41;100.00;100957.56;5073299;28;19954;-65
2021/03/22 03:51:08;;;;;;;;;;;;;;;-2.43;100.00;100956.72;5073432;28;19925;-65
2021/03/22 03:53:34;;;;;;;;;;;;;;;-2.47;100.00;100958.59;5073267;28;19936;-65
2021/03/22 03:56:00;;;;;;;;;;;;;;;-2.50;100.00;100958.63;5073762;28;19924;-65
2021/03/22 03:58:27;;;;;;;;;;;;;;;-2.43;100.00;100962.94;5073126;28;19927;-65
2021/03/22 04:00:53;;;;;;;;;;;;;;;-2.40;100.00;100959.31;5073317;28;19925;-65
2021/03/22 04:03:23;;;;;;;;;;;;;;;-2.39;100.00;100977.03;5073626;28;19924;-65
2021/03/22 04:05:57;;;;;;;;;;;;;;;-2.42;100.00;100971.75;5072974;28;20337;-65
2021/03/22 04:08:23;;;;;;;;;;;;;;;-2.45;100.00;100971.84;5072366;28;19978;-65
2021/03/22 04:10:50;;;;;;;;;;;;;;;-2.44;100.00;100973.59;5072942;28;19974;-65
2021/03/22 04:13:16;;;;;;;;;;;;;;;-2.49;100.00;100970.16;5073077;28;19930;-66
2021/03/22 04:15:42;;;;;;;;;;;;;;;-2.53;100.00;100972.88;5073107;28;20015;-65
2021/03/22 04:18:08;;;;;;;;;;;;;;;-2.53;100.00;100982.66;5072648;28;19935;-65
2021/03/22 04:20:34;;;;;;;;;;;;;;;-2.61;100.00;100982.81;5073127;28;19929;-65
2021/03/22 04:23:00;;;;;;;;;;;;;;;-2.61;100.00;100985.47;5073139;28;19925;-65
2021/03/22 04:25:26;;;;;;;;;;;;;;;-2.63;100.00;101002.38;5072984;28;20082;-65
2021/03/22 04:27:52;;;;;;;;;;;;;;;-2.66;100.00;100992.66;5072468;28;19928;-65
2021/03/22 04:30:18;;;;;;;;;;;;;;;-2.71;100.00;100994.59;5072637;28;19931;-65
2021/03/22 04:32:45;;;;;;;;;;;;;;;-2.66;100.00;101005.97;5073003;28;19929;-65
2021/03/22 04:35:12;;;;;;;;;;;;;;;-2.71;100.00;101002.56;5072449;28;19935;-65
2021/03/22 04:37:37;;;;;;;;;;;;;;;-2.76;100.00;101001.78;5072778;28;20340;-65
2021/03/22 04:40:04;;;;;;;;;;;;;;;-2.82;100.00;101004.56;5072438;28;19936;-65
2021/03/22 04:42:30;;;;;;;;;;;;;;;-2.83;100.00;101002.78;5072300;28;19939;-65
2021/03/22 04:44:56;;;;;;;;;;;;;;;-2.87;100.00;101008.19;5054724;28;20015;-65
2021/03/22 04:47:22;;;;;;;;;;;;;;;-2.90;100.00;101008.25;5072434;28;19932;-65
2021/03/22 04:49:48;;;;;;;;;;;;;;;-2.93;100.00;101010.97;5072454;28;19924;-66
2021/03/22 04:52:14;;;;;;;;;;;;;;;-2.89;100.00;101009.97;5072516;28;19925;-65
2021/03/22 04:54:40;;;;;;;;;;;;;;;-2.81;100.00;101006.31;5072300;28;20181;-65
2021/03/22 04:57:09;;;;;;;;;;;;;;;-2.77;100.00;101008.00;5072344;28;19979;-65
2021/03/22 04:59:35;;;;;;;;;;;;;;;-2.70;100.00;101013.16;5072178;28;19924;-65
2021/03/22 05:02:01;;;;;;;;;;;;;;;-2.66;100.00;101013.06;5054158;28;19925;-65
2021/03/22 05:04:27;;;;;;;;;;;;;;;-2.64;100.00;101016.59;5072055;28;20022;-65
2021/03/22 05:06:54;;;;;;;;;;;;;;;-2.65;100.00;101013.03;5072049;28;19928;-65
2021/03/22 05:09:20;;;;;;;;;;;;;;;-2.64;100.00;101016.59;5071936;28;19924;-65
2021/03/22 05:11:45;;;;;;;;;;;;;;;-2.68;100.00;101015.78;5072260;28;20034;-65
2021/03/22 05:14:11;;;;;;;;;;;;;;;-2.70;100.00;101018.47;5071877;28;19932;-65
2021/03/22 05:16:37;;;;;;;;;;;;;;;-2.68;100.00;101022.88;5072039;28;19929;-66
2021/03/22 05:19:03;;;;;;;;;;;;;;;-2.73;100.00;101026.47;5071174;28;19924;-65
2021/03/22 05:21:29;;;;;;;;;;;;;;;-2.72;100.00;101032.69;5071090;28;20001;-65
2021/03/22 05:23:56;;;;;;;;;;;;;;;-2.68;100.00;101031.72;5071633;28;19932;-66
2021/03/22 05:26:21;;;;;;;;;;;;;;;-2.61;100.00;101030.66;5071706;28;20051;-66
2021/03/22 05:28:47;;;;;;;;;;;;;;;-2.33;100.00;101039.81;5071521;28;19928;-66
2021/03/22 05:31:13;;;;;;;;;;;;;;;-1.92;100.00;101040.66;5071637;28;20007;-66
2021/03/22 05:33:39;;;;;;;;;;;;;;;-1.50;100.00;101044.91;5063891;28;19931;-65
2021/03/22 05:36:05;;;;;;;;;;;;;;;-1.07;100.00;101054.41;5052319;28;19928;-65
2021/03/22 05:38:32;;;;;;;;;;;;;;;-0.83;100.00;101047.50;5051402;28;19924;-66
2021/03/22 05:41:01;;;;;;;;;;;;;;;-0.50;100.00;101044.78;5054432;28;19931;-66
2021/03/22 05:43:42;;;;;;;;;;;;;;;-0.31;100.00;101047.75;5050910;28;20370;-67
2021/03/22 05:46:15;;;;;;;;;;;;;;;-0.17;100.00;101050.88;5045872;28;20343;-68
2021/03/22 05:48:58;;;;;;;;;;;;;;;0.02;100.00;101052.09;5072938;28;20294;-66
2021/03/22 05:51:54;;;;;;;;;;;;;;;0.30;100.00;101050.25;5047341;28;19932;-66
2021/03/22 05:54:31;;;;;;;;;;;;;;;0.44;100.00;101064.94;5008652;28;19980;-66
2021/03/22 05:57:01;;;;;;;;;;;;;;;0.69;100.00;101061.44;5043737;28;19971;-65
2021/03/22 05:59:31;;;;;;;;;;;;;;;1.00;100.00;101058.53;5050443;28;19932;-66
2021/03/22 06:02:01;;;;;;;;;;;;;;;1.28;100.00;101058.44;5032018;28;19925;-66
2021/03/22 06:04:31;;;;;;;;;;;;;;;1.54;100.00;101061.03;5051081;28;19960;-66
2021/03/22 06:06:57;;;;;;;;;;;;;;;1.91;100.00;101075.66;5065537;28;19924;-66
2021/03/22 06:09:27;;;;;;;;;;;;;;;2.10;100.00;101076.69;5076755;28;19985;-66
2021/03/22 06:11:56;;;;;;;;;;;;;;;2.33;100.00;101080.25;5078870;28;19970;-65
2021/03/22 06:14:27;;;;;;;;;;;;;;;2.40;100.00;101079.03;5077600;28;19928;-65
2021/03/22 06:16:58;;;;;;;;;;;;;;;2.62;100.00;101087.06;5079481;28;20423;-65
2021/03/22 06:19:24;;;;;;;;;;;;;;;2.81;100.00;101099.69;5077604;28;19978;-65
2021/03/22 06:21:50;;;;;;;;;;;;;;;3.01;100.00;101102.38;5079317;28;19924;-66
2021/03/22 06:24:17;;;;;;;;;;;;;;;3.13;100.00;101095.59;5083879;28;20451;-65
2021/03/22 06:26:44;;;;;;;;;;;;;;;3.34;100.00;101093.75;5078085;28;19935;-66
2021/03/22 06:29:17;;;;;;;;;;;;;;;3.65;100.00;101092.34;5054422;28;19925;-66
2021/03/22 06:31:45;;;;;;;;;;;;;;;3.85;100.00;101086.06;5057989;28;19974;-68
2021/03/22 06:34:12;;;;;;;;;;;;;;;4.19;100.00;101089.78;5069925;28;19968;-68
2021/03/22 06:36:38;;;;;;;;;;;;;;;4.80;100.00;101098.44;5075475;28;19924;-68
2021/03/22 06:39:06;;;;;;;;;;;;;;;4.84;100.00;101094.63;5082557;28;20021;-68
2021/03/22 06:41:34;;;;;;;;;;;;;;;4.90;100.00;101097.97;5076973;28;19924;-67
2021/03/22 06:44:01;;;;;;;;;;;;;;;4.96;100.00;101111.13;5054970;28;19932;-68
2021/03/22 06:46:27;;;;;;;;;;;;;;;5.23;100.00;101108.78;5071258;28;20020;-68
2021/03/22 06:48:57;;;;;;;;;;;;;;;5.10;100.00;101111.25;5064369;28;19924;-68
2021/03/22 06:51:23;;;;;;;;;;;;;;;4.98;100.00;101107.41;5062670;28;19925;-69
2021/03/22 06:53:50;;;;;;;;;;;;;;;4.96;100.00;101122.75;5074573;28;19931;-66
2021/03/22 06:56:21;;;;;;;;;;;;;;;4.98;100.00;101128.03;5073564;28;19964;-66
2021/03/22 06:58:47;;;;;;;;;;;;;;;4.57;100.00;101126.50;5073884;28;19935;-70
2021/03/22 07:01:20;;;;;;;;;;;;;;;4.27;100.00;101132.41;5069810;28;20390;-70
2021/03/22 07:03:45;;;;;;;;;;;;;;;4.35;100.00;101124.00;5074285;28;20009;-70
2021/03/22 07:06:16;;;;;;;;;;;;;;;4.59;100.00;101119.22;5074041;28;20353;-70
2021/03/22 07:08:42;;;;;;;;;;;;;;;4.76;100.00;101128.28;5073934;28;19925;-70
2021/03/22 07:11:09;;;;;;;;;;;;;;;5.05;100.00;101126.78;5072939;28;19928;-70
2021/03/22 07:13:35;;;;;;;;;;;;;;;5.06;100.00;101125.81;5073975;28;19997;-70
2021/03/22 07:16:13;;;;;;;;;;;;;;;5.22;100.00;101130.41;5074270;28;19924;-70
2021/03/22 07:18:39;;;;;;;;;;;;;;;5.28;100.00;101124.72;5074039;28;19978;-70
2021/03/22 07:21:10;;;;;;;;;;;;;;;5.18;100.00;101133.28;5073830;28;20382;-70
2021/03/22 07:23:43;;;;;;;;;;;;;;;5.11;100.00;101134.53;5074030;28;19932;-70
2021/03/22 07:26:13;;;;;;;;;;;;;;;5.33;100.00;101142.38;5073647;28;19928;-70
2021/03/22 07:28:45;;;;;;;;;;;;;;;5.56;100.00;101134.00;5074095;28;19924;-70
2021/03/22 07:31:16;;;;;;;;;;;;;;;5.76;100.00;101147.28;5073917;28;20215;-70
2021/03/22 07:33:48;;;;;;;;;;;;;;;6.33;100.00;101140.56;5074017;28;20385;-70
2021/03/22 07:36:20;;;;;;;;;;;;;;;6.81;100.00;101144.09;5073740;28;19978;-70
2021/03/22 07:38:55;;;;;;;;;;;;;;;7.50;93.23;101130.09;5073645;28;20397;-70
2021/03/22 07:41:27;;;;;;;;;;;;;;;7.81;86.22;101125.47;5073956;28;20263;-70
2021/03/22 07:44:06;;;;;;;;;;;;;;;8.24;84.35;101132.66;5072458;28;19932;-70
2021/03/22 07:46:42;;;;;;;;;;;;;;;8.64;80.84;101132.78;5065608;28;20382;-70
2021/03/22 07:49:26;;;;;;;;;;;;;;;9.17;80.49;101143.66;5061405;28;19935;-70
2021/03/22 07:52:10;;;;;;;;;;;;;;;9.62;72.52;101129.69;5057357;28;19932;-70
2021/03/22 07:54:42;;;;;;;;;;;;;;;9.68;69.00;101138.25;5053315;28;19963;-70
2021/03/22 07:57:15;;;;;;;;;;;;;;;9.48;68.48;101141.53;5053540;28;19928;-70
2021/03/22 07:59:45;;;;;;;;;;;;;;;9.69;66.55;101140.00;5052798;28;19932;-70
2021/03/22 08:02:32;;;;;;;;;;;;;;;9.43;68.71;101141.84;5053216;28;19964;-70
2021/03/22 08:05:04;;;;;;;;;;;;;;;9.80;67.55;101143.81;5049394;28;19925;-70
2021/03/22 08:07:40;;;;;;;;;;;;;;;10.08;65.69;101145.38;5053314;28;20271;-70
2021/03/22 08:10:24;;;;;;;;;;;;;;;10.55;67.20;101151.94;5052809;28;19928;-70
2021/03/22 08:12:53;;;;;;;;;;;;;;;10.81;56.50;101140.06;5053207;28;19956;-70
2021/03/22 08:15:25;;;;;;;;;;;;;;;11.53;59.15;101148.09;5053246;28;19932;-70
2021/03/22 08:17:55;;;;;;;;;;;;;;;12.10;53.66;101153.59;5052759;28;20359;-70
2021/03/22 08:20:22;;;;;;;;;;;;;;;12.39;50.65;101145.78;5052847;28;19932;-70
2021/03/22 08:22:52;;;;;;;;;;;;;;;12.98;48.95;101153.69;5052951;28;19924;-70
2021/03/22 08:25:22;;;;;;;;;;;;;;;13.79;45.95;101151.28;5066248;28;19932;-70
2021/03/22 08:27:53;;;;;;;;;;;;;;;13.60;44.77;101148.44;5070127;28;20266;-71
2021/03/22 08:30:27;;;;;;;;;;;;;;;13.83;43.38;101154.56;5091816;28;19924;-70
2021/03/22 08:32:56;;;;;;;;;;;;;;;13.83;42.46;101157.31;5072178;28;19925;-70
2021/03/22 08:35:25;;;;;;;;;;;;;;;13.98;42.32;101158.69;5072724;28;19931;-70
2021/03/22 08:37:54;;;;;;;;;;;;;;;14.00;41.54;101167.63;5067552;28;19978;-71
2021/03/22 08:40:23;;;;;;;;;;;;;;;13.87;41.17;101169.72;5053690;28;19959;-70
2021/03/22 08:42:52;;;;;;;;;;;;;;;13.96;40.49;101168.88;5054340;28;20390;-70
2021/03/22 08:45:22;;;;;;;;;;;;;;;14.05;39.04;101169.91;5058631;28;20415;-70
2021/03/22 08:47:52;;;;;;;;;;;;;;;13.46;39.02;101160.56;5054476;28;19964;-70
2021/03/22 08:50:19;;;;;;;;;;;;;;;13.02;39.15;101166.91;5062483;28;19933;-70
2021/03/22 08:52:51;;;;;;;;;;;;;;;13.85;38.91;101158.91;5047540;28;19935;-71
2021/03/22 08:55:18;;;;;;;;;;;;;;;14.02;39.45;101164.75;5061518;28;19929;-70
2021/03/22 08:57:50;;;;;;;;;;;;;;;14.42;37.57;101154.81;5064084;28;19932;-70
2021/03/22 09:00:26;;;;;;;;;;;;;;;14.73;36.77;101163.84;5058789;28;19931;-71
2021/03/22 09:02:53;;;;;;;;;;;;;;;14.45;36.69;101170.94;5064854;28;20403;-70
2021/03/22 09:05:20;;;;;;;;;;;;;;;13.78;37.51;101174.09;5064150;28;19924;-70
2021/03/22 09:07:46;;;;;;;;;;;;;;;13.59;39.25;101179.41;5056876;28;19974;-70
2021/03/22 09:10:18;;;;;;;;;;;;;;;13.68;38.57;101184.06;5056430;28;19924;-70
2021/03/22 09:12:45;;;;;;;;;;;;;;;13.43;39.30;101177.16;5044679;28;19925;-69
2021/03/22 09:15:13;;;;;;;;;;;;;;;13.31;37.29;101174.47;5056792;28;19934;-69
2021/03/22 09:17:58;;;;;;;;;;;;;;;13.18;38.05;101174.66;5066484;28;19924;-68
2021/03/22 09:20:26;;;;;;;;;;;;;;;12.49;35.39;101174.97;5069830;28;19978;-68
2021/03/22 09:22:54;;;;;;;;;;;;;;;12.46;38.68;101175.25;5066650;28;19924;-69
2021/03/22 09:25:39;;;;;;;;;;;;;;;12.93;38.80;101180.44;5042010;28;19995;-69
2021/03/22 09:28:21;;;;;;;;;;;;;;;13.26;37.50;101173.16;5069847;28;20378;-69
2021/03/22 09:30:54;;;;;;;;;;;;;;;13.92;36.47;101180.19;5053621;28;19932;-69
2021/03/22 09:33:35;;;;;;;;;;;;;;;14.20;35.69;101174.03;5051395;28;19971;-69
2021/03/22 09:36:04;;;;;;;;;;;;;;;13.91;34.10;101179.34;5056538;28;20299;-70
2021/03/22 09:38:39;;;;;;;;;;;;;;;12.94;37.50;101180.31;5050234;28;19932;-69
2021/03/22 09:41:04;;;;;;;;;;;;;;;13.49;35.60;101177.50;5050804;28;20373;-69
2021/03/22 09:43:32;;;;;;;;;;;;;;;13.13;35.87;101182.34;5049984;28;19925;-69
2021/03/22 09:46:26;;;;;;;;;;;;;;;13.77;36.74;101187.88;5050175;28;19983;-69
2021/03/22 09:49:07;;;;;;;;;;;;;;;14.59;34.49;101184.22;5040704;28;19990;-69
2021/03/22 09:51:40;;;;;;;;;;;;;;;15.36;34.28;101181.72;5056975;28;19932;-69
2021/03/22 09:54:17;;;;;;;;;;;;;;;15.96;32.38;101183.38;5055395;28;19925;-69
2021/03/22 09:56:53;;;;;;;;;;;;;;;16.29;31.09;101171.00;5057414;28;19925;-69
2021/03/22 09:59:23;;;;;;;;;;;;;;;16.37;29.27;101170.25;5051189;28;19932;-69
2021/03/22 10:01:50;;;;;;;;;;;;;;;16.51;30.84;101183.41;5052689;28;19939;-70
2021/03/22 10:04:31;;;;;;;;;;;;;;;16.12;31.34;101180.84;5051415;28;19928;-69
2021/03/22 10:07:02;;;;;;;;;;;;;;;15.42;31.77;101175.69;5056551;28;20031;-69
2021/03/22 10:09:36;;;;;;;;;;;;;;;15.55;32.84;101176.25;5057613;28;19971;-69
2021/03/22 10:12:09;;;;;;;;;;;;;;;13.80;31.36;101183.03;5059818;28;20338;-69
2021/03/22 10:14:36;;;;;;;;;;;;;;;14.18;32.74;101181.47;5069440;28;19947;-69
2021/03/22 10:17:03;;;;;;;;;;;;;;;14.79;31.50;101176.97;5069090;28;19931;-69
2021/03/22 10:19:30;;;;;;;;;;;;;;;15.30;32.64;101176.81;5068737;28;19929;-69
2021/03/22 10:21:57;;;;;;;;;;;;;;;14.85;31.41;101184.56;5048992;28;19928;-69
2021/03/22 10:24:31;;;;;;;;;;;;;;;14.34;31.09;101180.97;5062571;28;19928;-69
2021/03/22 10:26:57;;;;;;;;;;;;;;;15.37;31.21;101180.72;5067111;28;19924;-69
2021/03/22 10:29:25;;;;;;;;;;;;;;;15.77;29.75;101182.38;5045871;28;20300;-69
2021/03/22 10:31:57;;;;;;;;;;;;;;;16.24;31.02;101182.38;5070582;28;19930;-68
2021/03/22 10:34:26;;;;;;;;;;;;;;;15.85;32.05;101188.00;5059606;28;19932;-69
2021/03/22 10:36:52;;;;;;;;;;;;;;;15.63;32.77;101188.31;5051012;28;20364;-69
2021/03/22 10:39:22;;;;;;;;;;;;;;;14.57;31.14;101181.59;5062816;28;20236;-68
2021/03/22 10:41:49;;;;;;;;;;;;;;;14.48;32.62;101182.44;5065198;28;19928;-68
2021/03/22 10:44:17;;;;;;;;;;;;;;;14.69;29.69;101185.13;5046532;28;20352;-68
2021/03/22 10:46:43;;;;;;;;;;;;;;;14.25;30.75;101195.44;5053119;28;19928;-66
2021/03/22 10:49:11;;;;;;;;;;;;;;;13.43;33.60;101196.25;5052464;28;19928;-66
2021/03/22 10:51:38;;;;;;;;;;;;;;;13.62;33.74;101190.09;5062538;28;20385;-65
2021/03/22 10:54:06;;;;;;;;;;;;;;;13.33;32.09;101175.19;5050078;28;20333;-65
2021/03/22 10:56:33;;;;;;;;;;;;;;;12.88;32.98;101186.28;5051795;28;19924;-66
2021/03/22 10:59:02;;;;;;;;;;;;;;;14.06;35.39;101177.13;5033701;28;19936;-66
2021/03/22 11:01:36;;;;;;;;;;;;;;;14.46;34.39;101184.47;5041603;28;19924;-66
2021/03/22 11:04:03;;;;;;;;;;;;;;;13.78;33.37;101189.63;5063061;28;19996;-66
2021/03/22 11:06:33;;;;;;;;;;;;;;;14.53;33.59;101190.22;5068917;28;20643;-66
2021/03/22 11:09:00;;;;;;;;;;;;;;;14.90;33.45;101187.75;5046825;28;20011;-67
2021/03/22 11:11:28;;;;;;;;;;;;;;;15.10;33.93;101193.25;5070154;28;20058;-66
2021/03/22 11:13:55;;;;;;;;;;;;;;;15.75;32.02;101192.59;5060697;28;19925;-66
2021/03/22 11:16:25;;;;;;;;;;;;;;;15.57;30.85;101190.63;5044291;28;19924;-66
2021/03/22 11:18:51;;;;;;;;;;;;;;;13.76;31.16;101191.59;5070939;28;19924;-65
2021/03/22 11:21:18;;;;;;;;;;;;;;;13.45;29.37;101191.53;5070502;28;20301;-64
2021/03/22 11:23:45;;;;;;;;;;;;;;;13.12;29.84;101204.28;5067624;28;19970;-66
2021/03/22 11:26:12;;;;;;;;;;;;;;;13.52;30.03;101195.44;5069322;28;19929;-66
2021/03/22 11:28:38;;;;;;;;;;;;;;;13.01;30.36;101194.28;5053542;28;20405;-66
2021/03/22 11:31:05;;;;;;;;;;;;;;;13.11;29.82;101208.88;5054464;28;19929;-67
2021/03/22 11:33:39;;;;;;;;;;;;;;;13.41;32.95;101196.38;5053645;28;19932;-65
2021/03/22 11:36:11;;;;;;;;;;;;;;;13.70;30.94;101188.41;5068915;28;19924;-66
2021/03/22 11:38:44;;;;;;;;;;;;;;;14.05;29.97;101191.75;5064797;28;19970;-68
2021/03/22 11:41:23;;;;;;;;;;;;;;;14.44;29.88;101183.72;5071815;28;19924;-66
2021/03/22 11:43:59;;;;;;;;;;;;;;;14.92;30.98;101175.81;5058030;28;19928;-67
2021/03/22 11:46:26;;;;;;;;;;;;;;;15.29;30.73;101172.38;5073167;28;19928;-67
2021/03/22 11:48:52;;;;;;;;;;;;;;;15.47;28.23;101173.34;5069517;28;20270;-67
2021/03/22 11:51:18;;;;;;;;;;;;;;;16.10;29.52;101171.06;5071675;28;19933;-67
2021/03/22 11:53:57;;;;;;;;;;;;;;;16.29;29.43;101179.22;5057705;28;19925;-68
2021/03/22 11:56:27;;;;;;;;;;;;;;;16.33;27.69;101168.81;5051981;28;19932;-67
2021/03/22 11:59:06;;;;;;;;;;;;;;;16.73;29.46;101167.59;5058477;28;19924;-68
2021/03/22 12:01:31;;;;;;;;;;;;;;;15.50;28.92;101164.88;5069894;28;20389;-67
2021/03/22 12:04:12;;;;;;;;;;;;;;;15.83;28.91;101161.78;5060934;28;19925;-67
2021/03/22 12:06:50;;;;;;;;;;;;;;;16.29;28.14;101159.16;5058890;28;20019;-67
2021/03/22 12:09:16;;;;;;;;;;;;;;;16.28;27.58;101160.19;5066823;28;20436;-68
2021/03/22 12:11:43;;;;;;;;;;;;;;;16.78;27.26;101158.88;5053370;28;20448;-69
2021/03/22 12:14:09;;;;;;;;;;;;;;;17.10;29.93;101166.59;5053238;28;20062;-68
2021/03/22 12:16:35;;;;;;;;;;;;;;;16.19;29.32;101168.31;5052475;28;19933;-68
2021/03/22 12:19:04;;;;;;;;;;;;;;;15.67;27.40;101167.84;5052709;28;19974;-68
2021/03/22 12:21:31;;;;;;;;;;;;;;;15.72;28.77;101171.88;5052985;28;20373;-69
2021/03/22 12:23:58;;;;;;;;;;;;;;;15.61;27.26;101171.19;5069676;28;19924;-69
2021/03/22 12:26:24;;;;;;;;;;;;;;;15.64;28.50;101165.41;5072589;28;19971;-68
2021/03/22 12:28:54;;;;;;;;;;;;;;;14.38;28.65;101162.44;5054563;28;19929;-68
2021/03/22 12:31:21;;;;;;;;;;;;;;;15.36;29.85;101168.03;5072289;28;20341;-68
2021/03/22 12:33:46;;;;;;;;;;;;;;;16.05;28.42;101168.78;5072842;28;20015;-67
2021/03/22 12:36:12;;;;;;;;;;;;;;;16.12;26.69;101148.00;5072690;28;19931;-68
2021/03/22 12:38:39;;;;;;;;;;;;;;;15.39;27.77;101159.53;5072268;28;19924;-67
2021/03/22 12:41:05;;;;;;;;;;;;;;;15.44;30.76;101162.69;5072432;28;19944;-67
2021/03/22 12:43:32;;;;;;;;;;;;;;;15.84;29.38;101161.63;5072472;28;19939;-67